sensor_id;sensor_type;location;lat;lon;timestamp;pressure;altitude;pressure_sealevel;temperature;humidity
51781;BME280;37844;57.126;24.288;2023-03-20T00:02:42;101426.41;;;7.53;100.00
51781;BME280;37844;57.126;24.288;2023-03-20T00:05:26;101431.06;;;7.63;100.00
51781;BME280;37844;57.126;24.288;2023-03-20T00:08:11;101421.06;;;7.71;100.00
51781;BME280;37844;57.126;24.288;2023-03-20T00:10:55;101422.75;;;7.70;100.00
51781;BME280;37844;57.126;24.288;2023-03-20T00:13:39;101422.56;;;7.64;100.00
51781;BME280;37844;57.126;24.288;2023-03-20T00:16:24;101421.50;;;7.59;100.00
51781;BME280;37844;57.126;24.288;2023-03-20T00:19:20;101426.28;;;7.50;100.00
51781;BME280;37844;57.126;24.288;2023-03-20T00:22:07;101422.06;;;7.50;100.00
51781;BME280;37844;57.126;24.288;2023-03-20T00:24:51;101421.03;;;7.45;100.00
51781;BME280;37844;57.126;24.288;2023-03-20T00:27:37;101418.56;;;7.48;100.00
51781;BME280;37844;57.126;24.288;2023-03-20T00:30:22;101425.50;;;7.51;100.00
51781;BME280;37844;57.126;24.288;2023-03-20T00:33:07;101422.06;;;7.50;100.00
51781;BME280;37844;57.126;24.288;2023-03-20T00:35:53;101419.44;;;7.49;100.00
51781;BME280;37844;57.126;24.288;2023-03-20T00:38:37;101415.31;;;7.54;100.00
51781;BME280;37844;57.126;24.288;2023-03-20T00:44:29;101400.34;;;7.64;100.00
51781;BME280;37844;57.126;24.288;2023-03-20T00:47:18;101400.34;;;7.64;100.00
51781;BME280;37844;57.126;24.288;2023-03-20T00:50:05;101397.81;;;7.66;100.00
51781;BME280;37844;57.126;24.288;2023-03-20T00:52:49;101391.47;;;7.56;100.00
51781;BME280;37844;57.126;24.288;2023-03-20T00:55:39;101392.94;;;7.50;100.00
51781;BME280;37844;57.126;24.288;2023-03-20T00:58:23;101385.69;;;7.38;100.00
51781;BME280;37844;57.126;24.288;2023-03-20T01:01:08;101385.56;;;7.35;100.00
51781;BME280;37844;57.126;24.288;2023-03-20T01:03:52;101384.97;;;7.42;100.00
51781;BME280;37844;57.126;24.288;2023-03-20T01:06:36;101392.03;;;7.48;100.00
51781;BME280;37844;57.126;24.288;2023-03-20T01:09:20;101386.16;;;7.50;100.00
51781;BME280;37844;57.126;24.288;2023-03-20T01:12:04;101382.53;;;7.45;100.00
51781;BME280;37844;57.126;24.288;2023-03-20T01:14:51;101386.16;;;7.50;100.00
51781;BME280;37844;57.126;24.288;2023-03-20T01:17:36;101381.13;;;7.53;100.00
51781;BME280;37844;57.126;24.288;2023-03-20T01:20:24;101378.47;;;7.52;100.00
51781;BME280;37844;57.126;24.288;2023-03-20T01:23:08;101374.28;;;7.54;100.00
51781;BME280;37844;57.126;24.288;2023-03-20T01:25:52;101368.13;;;7.49;100.00
51781;BME280;37844;57.126;24.288;2023-03-20T01:28:36;101371.72;;;7.54;100.00
51781;BME280;37844;57.126;24.288;2023-03-20T01:31:20;101370.94;;;7.56;100.00
51781;BME280;37844;57.126;24.288;2023-03-20T01:34:04;101383.84;;;7.58;100.00
51781;BME280;37844;57.126;24.288;2023-03-20T01:36:53;101378.81;;;7.61;100.00
51781;BME280;37844;57.126;24.288;2023-03-20T01:39:38;101374.28;;;7.54;100.00
51781;BME280;37844;57.126;24.288;2023-03-20T01:42:22;101374.25;;;7.52;100.00
51781;BME280;37844;57.126;24.288;2023-03-20T01:45:11;101371.69;;;7.52;100.00
51781;BME280;37844;57.126;24.288;2023-03-20T01:47:57;101364.84;;;7.53;100.00
51781;BME280;37844;57.126;24.288;2023-03-20T01:50:41;101363.75;;;7.46;100.00
51781;BME280;37844;57.126;24.288;2023-03-20T01:53:25;101367.78;;;7.39;100.00
51781;BME280;37844;57.126;24.288;2023-03-20T01:56:11;101376.31;;;7.38;100.00
51781;BME280;37844;57.126;24.288;2023-03-20T01:58:57;101363.75;;;7.46;100.00
51781;BME280;37844;57.126;24.288;2023-03-20T02:01:43;101367.69;;;7.60;100.00
51781;BME280;37844;57.126;24.288;2023-03-20T02:04:35;101358.19;;;7.58;100.00
51781;BME280;37844;57.126;24.288;2023-03-20T02:07:21;101356.38;;;7.55;100.00
51781;BME280;37844;57.126;24.288;2023-03-20T02:10:10;101359.66;;;7.51;100.00
51781;BME280;37844;57.126;24.288;2023-03-20T02:12:55;101354.09;;;7.39;100.00
51781;BME280;37844;57.126;24.288;2023-03-20T02:18:56;101344.97;;;7.47;100.00
51781;BME280;37844;57.126;24.288;2023-03-20T02:33:18;101321.00;;;7.45;100.00
51781;BME280;37844;57.126;24.288;2023-03-20T02:39:44;101321.44;;;7.33;100.00
51781;BME280;37844;57.126;24.288;2023-03-20T02:44:57;101319.59;;;7.31;100.00
51781;BME280;37844;57.126;24.288;2023-03-20T02:50:35;101315.06;;;7.23;100.00
51781;BME280;37844;57.126;24.288;2023-03-20T02:53:25;101314.03;;;7.18;100.00
51781;BME280;37844;57.126;24.288;2023-03-20T03:02:11;101301.72;;;7.08;100.00
51781;BME280;37844;57.126;24.288;2023-03-20T03:04:58;101300.13;;;7.12;100.00
51781;BME280;37844;57.126;24.288;2023-03-20T03:07:43;101302.38;;;7.03;100.00
51781;BME280;37844;57.126;24.288;2023-03-20T03:10:30;101296.69;;;7.11;100.00
51781;BME280;37844;57.126;24.288;2023-03-20T03:13:18;101285.13;;;7.22;100.00
51781;BME280;37844;57.126;24.288;2023-03-20T03:16:18;101287.78;;;7.26;100.00
51781;BME280;37844;57.126;24.288;2023-03-20T03:19:07;101293.94;;;7.05;100.00
51781;BME280;37844;57.126;24.288;2023-03-20T03:21:52;101289.84;;;7.10;100.00
51781;BME280;37844;57.126;24.288;2023-03-20T03:24:37;101289.13;;;7.14;100.00
51781;BME280;37844;57.126;24.288;2023-03-20T03:27:26;101288.97;;;7.10;100.00
51781;BME280;37844;57.126;24.288;2023-03-20T03:35:48;101275.38;;;7.12;100.00
51781;BME280;37844;57.126;24.288;2023-03-20T03:49:40;101258.63;;;6.98;100.00
51781;BME280;37844;57.126;24.288;2023-03-20T03:52:25;101268.06;;;6.99;100.00
51781;BME280;37844;57.126;24.288;2023-03-20T03:55:20;101261.13;;;6.96;100.00
51781;BME280;37844;57.126;24.288;2023-03-20T03:58:13;101253.19;;;6.89;100.00
51781;BME280;37844;57.126;24.288;2023-03-20T04:00:58;101246.53;;;6.94;100.00
51781;BME280;37844;57.126;24.288;2023-03-20T04:03:47;101245.53;;;6.90;100.00
51781;BME280;37844;57.126;24.288;2023-03-20T04:06:31;101249.91;;;6.93;100.00
51781;BME280;37844;57.126;24.288;2023-03-20T04:09:16;101246.03;;;7.04;100.00
51781;BME280;37844;57.126;24.288;2023-03-20T04:12:00;101244.13;;;6.98;100.00
51781;BME280;37844;57.126;24.288;2023-03-20T04:14:44;101241.75;;;7.05;100.00
51781;BME280;37844;57.126;24.288;2023-03-20T04:17:28;101234.69;;;6.97;100.00
51781;BME280;37844;57.126;24.288;2023-03-20T04:20:13;101232.88;;;6.95;100.00
51781;BME280;37844;57.126;24.288;2023-03-20T04:22:56;101231.22;;;6.95;100.00
51781;BME280;37844;57.126;24.288;2023-03-20T04:25:41;101228.34;;;6.88;100.00
51781;BME280;37844;57.126;24.288;2023-03-20T04:28:25;101223.13;;;6.85;100.00
51781;BME280;37844;57.126;24.288;2023-03-20T04:31:09;101226.56;;;6.85;100.00
51781;BME280;37844;57.126;24.288;2023-03-20T04:33:52;101223.19;;;6.86;100.00
51781;BME280;37844;57.126;24.288;2023-03-20T04:36:36;101227.50;;;6.87;100.00
51781;BME280;37844;57.126;24.288;2023-03-20T04:39:20;101230.72;;;6.82;100.00
51781;BME280;37844;57.126;24.288;2023-03-20T04:42:04;101222.09;;;6.79;100.00
51781;BME280;37844;57.126;24.288;2023-03-20T04:44:48;101224.16;;;6.90;100.00
51781;BME280;37844;57.126;24.288;2023-03-20T04:47:32;101222.53;;;6.92;100.00
51781;BME280;37844;57.126;24.288;2023-03-20T04:50:16;101222.63;;;6.95;100.00
51781;BME280;37844;57.126;24.288;2023-03-20T04:53:00;101216.47;;;6.90;100.00
51781;BME280;37844;57.126;24.288;2023-03-20T04:55:44;101214.75;;;6.89;100.00
51781;BME280;37844;57.126;24.288;2023-03-20T04:58:28;101211.31;;;6.88;100.00
51781;BME280;37844;57.126;24.288;2023-03-20T05:01:12;101213.66;;;6.82;100.00
51781;BME280;37844;57.126;24.288;2023-03-20T05:03:56;101145.69;;;6.44;100.00
51781;BME280;37844;57.126;24.288;2023-03-20T05:06:43;101200.28;;;6.67;100.00
51781;BME280;37844;57.126;24.288;2023-03-20T05:09:30;101209.63;;;6.65;100.00
51781;BME280;37844;57.126;24.288;2023-03-20T05:12:15;101212.38;;;6.71;100.00
51781;BME280;37844;57.126;24.288;2023-03-20T05:14:59;101214.84;;;6.68;100.00
51781;BME280;37844;57.126;24.288;2023-03-20T05:17:43;101212.38;;;6.71;100.00
51781;BME280;37844;57.126;24.288;2023-03-20T05:20:27;101212.38;;;6.71;100.00
51781;BME280;37844;57.126;24.288;2023-03-20T05:23:11;101213.06;;;6.67;100.00
51781;BME280;37844;57.126;24.288;2023-03-20T05:25:55;101204.94;;;6.77;100.00
51781;BME280;37844;57.126;24.288;2023-03-20T05:28:39;101204.31;;;6.84;100.00
51781;BME280;37844;57.126;24.288;2023-03-20T05:31:23;101212.53;;;6.75;100.00
51781;BME280;37844;57.126;24.288;2023-03-20T05:34:07;101200.59;;;6.76;100.00
51781;BME280;37844;57.126;24.288;2023-03-20T05:36:58;101210.22;;;6.82;100.00
51781;BME280;37844;57.126;24.288;2023-03-20T05:39:42;101205.19;;;6.85;100.00
51781;BME280;37844;57.126;24.288;2023-03-20T05:42:26;101206.91;;;6.86;100.00
51781;BME280;37844;57.126;24.288;2023-03-20T05:45:10;101206.22;;;6.90;100.00
51781;BME280;37844;57.126;24.288;2023-03-20T05:47:54;101200.31;;;6.91;100.00
51781;BME280;37844;57.126;24.288;2023-03-20T05:50:38;101199.41;;;6.90;100.00
51781;BME280;37844;57.126;24.288;2023-03-20T05:53:22;101196.84;;;6.90;100.00
51781;BME280;37844;57.126;24.288;2023-03-20T05:56:06;101202.03;;;6.92;100.00
51781;BME280;37844;57.126;24.288;2023-03-20T05:58:51;101192.97;;;7.01;100.00
51781;BME280;37844;57.126;24.288;2023-03-20T06:01:35;101193.47;;;6.91;100.00
51781;BME280;37844;57.126;24.288;2023-03-20T06:04:18;101194.56;;;6.98;100.00
51781;BME280;37844;57.126;24.288;2023-03-20T06:07:03;101187.66;;;6.95;100.00
51781;BME280;37844;57.126;24.288;2023-03-20T06:09:47;101194.13;;;7.10;100.00
51781;BME280;37844;57.126;24.288;2023-03-20T06:12:32;101193.38;;;7.14;100.00
51781;BME280;37844;57.126;24.288;2023-03-20T06:15:16;101192.06;;;7.25;100.00
51781;BME280;37844;57.126;24.288;2023-03-20T06:18:00;101191.59;;;7.37;100.00
51781;BME280;37844;57.126;24.288;2023-03-20T06:20:44;101187.41;;;7.39;100.00
51781;BME280;37844;57.126;24.288;2023-03-20T06:23:28;101182.66;;;7.51;100.00
51781;BME280;37844;57.126;24.288;2023-03-20T06:26:12;101184.91;;;7.40;100.00
51781;BME280;37844;57.126;24.288;2023-03-20T06:28:56;101187.94;;;7.56;100.00
51781;BME280;37844;57.126;24.288;2023-03-20T06:31:40;101188.72;;;7.80;100.00
51781;BME280;37844;57.126;24.288;2023-03-20T06:34:23;101178.88;;;7.94;100.00
51781;BME280;37844;57.126;24.288;2023-03-20T06:37:08;101181.88;;;8.08;100.00
51781;BME280;37844;57.126;24.288;2023-03-20T06:39:52;101183.09;;;8.21;100.00
51781;BME280;37844;57.126;24.288;2023-03-20T06:42:36;101175.53;;;8.25;100.00
51781;BME280;37844;57.126;24.288;2023-03-20T06:45:20;101176.41;;;8.26;100.00
51781;BME280;37844;57.126;24.288;2023-03-20T06:48:05;101179.50;;;8.43;100.00
51781;BME280;37844;57.126;24.288;2023-03-20T06:50:50;101181.97;;;8.70;100.00
51781;BME280;37844;57.126;24.288;2023-03-20T06:53:35;101178.25;;;8.92;100.00
51781;BME280;37844;57.126;24.288;2023-03-20T06:56:19;101175.91;;;9.00;100.00
51781;BME280;37844;57.126;24.288;2023-03-20T06:59:03;101172.81;;;9.13;100.00
51781;BME280;37844;57.126;24.288;2023-03-20T07:01:47;101163.28;;;9.44;100.00
51781;BME280;37844;57.126;24.288;2023-03-20T07:04:31;101165.50;;;10.40;100.00
51781;BME280;37844;57.126;24.288;2023-03-20T07:07:16;101168.03;;;10.83;100.00
51781;BME280;37844;57.126;24.288;2023-03-20T07:10:00;101169.19;;;10.99;100.00
51781;BME280;37844;57.126;24.288;2023-03-20T07:12:44;101167.31;;;11.94;100.00
51781;BME280;37844;57.126;24.288;2023-03-20T07:15:28;101166.22;;;12.45;100.00
51781;BME280;37844;57.126;24.288;2023-03-20T07:18:12;101166.63;;;12.10;100.00
51781;BME280;37844;57.126;24.288;2023-03-20T07:20:57;101159.53;;;11.39;100.00
51781;BME280;37844;57.126;24.288;2023-03-20T07:23:42;101159.00;;;11.07;100.00
51781;BME280;37844;57.126;24.288;2023-03-20T07:26:26;101156.81;;;10.81;100.00
51781;BME280;37844;57.126;24.288;2023-03-20T07:29:10;101157.47;;;10.69;100.00
51781;BME280;37844;57.126;24.288;2023-03-20T07:31:54;101152.84;;;10.53;100.00
51781;BME280;37844;57.126;24.288;2023-03-20T07:34:38;101155.28;;;10.45;100.00
51781;BME280;37844;57.126;24.288;2023-03-20T07:37:22;101150.94;;;10.43;100.00
51781;BME280;37844;57.126;24.288;2023-03-20T07:40:07;101150.69;;;10.30;100.00
51781;BME280;37844;57.126;24.288;2023-03-20T07:42:51;101146.22;;;10.25;100.00
51781;BME280;37844;57.126;24.288;2023-03-20T07:45:36;101155.72;;;10.26;100.00
51781;BME280;37844;57.126;24.288;2023-03-20T07:48:20;101150.50;;;10.24;100.00
51781;BME280;37844;57.126;24.288;2023-03-20T07:51:04;101149.69;;;10.25;100.00
51781;BME280;37844;57.126;24.288;2023-03-20T07:53:48;101147.19;;;10.28;100.00
51781;BME280;37844;57.126;24.288;2023-03-20T07:56:34;101146.34;;;10.29;100.00
51781;BME280;37844;57.126;24.288;2023-03-20T07:59:18;101149.94;;;10.36;100.00
51781;BME280;37844;57.126;24.288;2023-03-20T08:02:03;101146.69;;;10.45;100.00
51781;BME280;37844;57.126;24.288;2023-03-20T08:04:47;101146.59;;;10.40;100.00
51781;BME280;37844;57.126;24.288;2023-03-20T08:07:31;101143.78;;;10.29;100.00
51781;BME280;37844;57.126;24.288;2023-03-20T08:10:15;101137.00;;;10.34;100.00
51781;BME280;37844;57.126;24.288;2023-03-20T08:13:00;101134.66;;;10.45;100.00
51781;BME280;37844;57.126;24.288;2023-03-20T08:15:45;101133.78;;;10.45;100.00
51781;BME280;37844;57.126;24.288;2023-03-20T08:18:29;101132.84;;;10.41;100.00
51781;BME280;37844;57.126;24.288;2023-03-20T08:21:13;101129.44;;;10.42;100.00
51781;BME280;37844;57.126;24.288;2023-03-20T08:23:57;101123.50;;;10.46;100.00
51781;BME280;37844;57.126;24.288;2023-03-20T08:26:41;101125.13;;;10.41;100.00
51781;BME280;37844;57.126;24.288;2023-03-20T08:29:27;101129.53;;;10.47;100.00
51781;BME280;37844;57.126;24.288;2023-03-20T08:32:10;101126.78;;;10.39;100.00
51781;BME280;37844;57.126;24.288;2023-03-20T08:34:54;101120.78;;;10.38;100.00
51781;BME280;37844;57.126;24.288;2023-03-20T08:37:38;101125.97;;;10.40;100.00
51781;BME280;37844;57.126;24.288;2023-03-20T08:40:22;101115.66;;;10.42;100.00
51781;BME280;37844;57.126;24.288;2023-03-20T08:43:06;101121.81;;;10.47;100.00
51781;BME280;37844;57.126;24.288;2023-03-20T08:45:51;101117.47;;;10.46;100.00
51781;BME280;37844;57.126;24.288;2023-03-20T08:48:35;101116.75;;;10.51;100.00
51781;BME280;37844;57.126;24.288;2023-03-20T08:51:19;101113.44;;;10.58;100.00
51781;BME280;37844;57.126;24.288;2023-03-20T08:54:04;101108.38;;;10.63;100.00
51781;BME280;37844;57.126;24.288;2023-03-20T08:56:48;101103.19;;;10.61;100.00
51781;BME280;37844;57.126;24.288;2023-03-20T08:59:32;101100.69;;;10.66;100.00
51781;BME280;37844;57.126;24.288;2023-03-20T09:02:16;101100.88;;;10.77;100.00
51781;BME280;37844;57.126;24.288;2023-03-20T09:05:00;101100.94;;;10.81;100.00
51781;BME280;37844;57.126;24.288;2023-03-20T09:07:45;101102.69;;;10.82;100.00
51781;BME280;37844;57.126;24.288;2023-03-20T09:10:28;101113.97;;;10.88;100.00
51781;BME280;37844;57.126;24.288;2023-03-20T09:13:13;101107.94;;;10.89;100.00
51781;BME280;37844;57.126;24.288;2023-03-20T09:15:57;101100.41;;;10.99;100.00
51781;BME280;37844;57.126;24.288;2023-03-20T09:18:41;101102.41;;;11.17;100.00
51781;BME280;37844;57.126;24.288;2023-03-20T09:21:25;101102.53;;;11.23;100.00
51781;BME280;37844;57.126;24.288;2023-03-20T09:24:09;101095.72;;;11.29;100.00
51781;BME280;37844;57.126;24.288;2023-03-20T09:26:54;101091.50;;;11.34;100.00
51781;BME280;37844;57.126;24.288;2023-03-20T09:29:39;101095.81;;;11.35;100.00
51781;BME280;37844;57.126;24.288;2023-03-20T09:32:22;101100.13;;;11.36;100.00
51781;BME280;37844;57.126;24.288;2023-03-20T09:35:06;101094.25;;;11.44;100.00
51781;BME280;37844;57.126;24.288;2023-03-20T09:37:50;101095.22;;;11.51;100.00
51781;BME280;37844;57.126;24.288;2023-03-20T09:46:36;101092.63;;;11.53;99.47
51781;BME280;37844;57.126;24.288;2023-03-20T09:50:00;101084.94;;;11.56;99.44
51781;BME280;37844;57.126;24.288;2023-03-20T09:52:55;101086.56;;;11.51;99.33
51781;BME280;37844;57.126;24.288;2023-03-20T09:55:41;101082.31;;;11.53;99.34
51781;BME280;37844;57.126;24.288;2023-03-20T09:58:34;101085.03;;;11.62;99.39
51781;BME280;37844;57.126;24.288;2023-03-20T10:01:21;101074.91;;;11.77;99.32
51781;BME280;37844;57.126;24.288;2023-03-20T10:04:07;101080.16;;;11.83;97.47
51781;BME280;37844;57.126;24.288;2023-03-20T10:06:52;101074.28;;;11.92;97.79
51781;BME280;37844;57.126;24.288;2023-03-20T10:09:36;101077.88;;;12.05;97.04
51781;BME280;37844;57.126;24.288;2023-03-20T10:12:29;101077.09;;;12.11;96.14
51781;BME280;37844;57.126;24.288;2023-03-20T10:20:55;101067.41;;;11.96;95.52
51781;BME280;37844;57.126;24.288;2023-03-20T10:23:43;101058.09;;;12.07;93.13
51781;BME280;37844;57.126;24.288;2023-03-20T10:26:35;101060.75;;;12.15;93.21
51781;BME280;37844;57.126;24.288;2023-03-20T10:29:26;101049.72;;;12.28;92.51
51781;BME280;37844;57.126;24.288;2023-03-20T10:32:23;101049.09;;;12.52;92.52
51781;BME280;37844;57.126;24.288;2023-03-20T10:35:19;101045.16;;;12.92;92.31
51781;BME280;37844;57.126;24.288;2023-03-20T10:41:11;101045.56;;;13.46;87.09
51781;BME280;37844;57.126;24.288;2023-03-20T10:43:58;101038.53;;;13.28;84.79
51781;BME280;37844;57.126;24.288;2023-03-20T10:46:43;101037.53;;;13.14;87.38
51781;BME280;37844;57.126;24.288;2023-03-20T10:52:27;101040.91;;;13.02;85.63
51781;BME280;37844;57.126;24.288;2023-03-20T10:55:14;101030.44;;;12.85;85.43
51781;BME280;37844;57.126;24.288;2023-03-20T10:58:02;101029.47;;;12.72;85.98
51781;BME280;37844;57.126;24.288;2023-03-20T11:00:53;101031.91;;;12.57;86.70
51781;BME280;37844;57.126;24.288;2023-03-20T11:03:37;101030.94;;;12.47;88.36
51781;BME280;37844;57.126;24.288;2023-03-20T11:06:27;101035.16;;;12.38;88.71
51781;BME280;37844;57.126;24.288;2023-03-20T11:09:17;101027.34;;;12.30;88.83
51781;BME280;37844;57.126;24.288;2023-03-20T11:12:02;101027.38;;;12.32;90.62
51781;BME280;37844;57.126;24.288;2023-03-20T11:14:46;101025.47;;;12.15;90.84
51781;BME280;37844;57.126;24.288;2023-03-20T11:17:30;101033.88;;;11.99;91.47
51781;BME280;37844;57.126;24.288;2023-03-20T11:20:14;101025.91;;;11.83;92.73
51781;BME280;37844;57.126;24.288;2023-03-20T11:23:00;101034.41;;;11.73;95.13
51781;BME280;37844;57.126;24.288;2023-03-20T11:25:48;101025.63;;;11.60;95.80
51781;BME280;37844;57.126;24.288;2023-03-20T11:28:33;101020.31;;;11.50;96.70
51781;BME280;37844;57.126;24.288;2023-03-20T11:31:19;101031.41;;;11.42;97.11
51781;BME280;37844;57.126;24.288;2023-03-20T11:37:06;101021.19;;;11.49;100.00
51781;BME280;37844;57.126;24.288;2023-03-20T11:40:24;101019.41;;;11.46;100.00
51781;BME280;37844;57.126;24.288;2023-03-20T11:45:45;101013.81;;;11.17;100.00
51781;BME280;37844;57.126;24.288;2023-03-20T11:48:37;101011.78;;;10.94;100.00
51781;BME280;37844;57.126;24.288;2023-03-20T11:51:21;101009.97;;;10.90;100.00
51781;BME280;37844;57.126;24.288;2023-03-20T11:54:05;101010.88;;;10.94;100.00
51781;BME280;37844;57.126;24.288;2023-03-20T11:56:59;100999.56;;;10.82;100.00
51781;BME280;37844;57.126;24.288;2023-03-20T11:59:43;101000.31;;;10.77;100.00
51781;BME280;37844;57.126;24.288;2023-03-20T12:02:28;100994.16;;;10.69;100.00
51781;BME280;37844;57.126;24.288;2023-03-20T12:08:04;100989.59;;;10.52;100.00
51781;BME280;37844;57.126;24.288;2023-03-20T12:10:51;100981.56;;;10.35;100.00
51781;BME280;37844;57.126;24.288;2023-03-20T12:13:37;100981.56;;;10.35;100.00
51781;BME280;37844;57.126;24.288;2023-03-20T12:16:22;100970.28;;;10.29;100.00
51781;BME280;37844;57.126;24.288;2023-03-20T12:19:11;100967.41;;;10.15;100.00
51781;BME280;37844;57.126;24.288;2023-03-20T12:22:02;100965.84;;;10.22;100.00
51781;BME280;37844;57.126;24.288;2023-03-20T12:24:57;100957.75;;;10.03;100.00
51781;BME280;37844;57.126;24.288;2023-03-20T12:27:52;100962.19;;;10.10;100.00
51781;BME280;37844;57.126;24.288;2023-03-20T12:36:14;100960.84;;;9.84;100.00
51781;BME280;37844;57.126;24.288;2023-03-20T12:39:03;100964.09;;;9.75;100.00
51781;BME280;37844;57.126;24.288;2023-03-20T12:41:57;100957.97;;;9.68;100.00
51781;BME280;37844;57.126;24.288;2023-03-20T12:44:49;100958.78;;;9.67;100.00
51781;BME280;37844;57.126;24.288;2023-03-20T12:50:41;100957.06;;;9.66;100.00
51781;BME280;37844;57.126;24.288;2023-03-20T12:59:21;100942.13;;;9.92;100.00
51781;BME280;37844;57.126;24.288;2023-03-20T13:10:23;100923.97;;;9.85;100.00
51781;BME280;37844;57.126;24.288;2023-03-20T13:13:16;100916.31;;;9.89;100.00
51781;BME280;37844;57.126;24.288;2023-03-20T13:16:15;100916.06;;;9.75;100.00
51781;BME280;37844;57.126;24.288;2023-03-20T13:19:08;100910.06;;;9.76;100.00
51781;BME280;37844;57.126;24.288;2023-03-20T13:24:49;100900.81;;;9.85;100.00
51781;BME280;37844;57.126;24.288;2023-03-20T13:27:46;100897.38;;;9.86;100.00
51781;BME280;37844;57.126;24.288;2023-03-20T13:30:49;100896.59;;;9.90;100.00
51781;BME280;37844;57.126;24.288;2023-03-20T13:33:58;100896.59;;;9.91;100.00
51781;BME280;37844;57.126;24.288;2023-03-20T13:42:17;100878.03;;;10.09;100.00
51781;BME280;37844;57.126;24.288;2023-03-20T13:45:04;100871.13;;;10.07;100.00
51781;BME280;37844;57.126;24.288;2023-03-20T13:47:51;100872.13;;;10.13;100.00
51781;BME280;37844;57.126;24.288;2023-03-20T13:50:41;100863.56;;;10.17;100.00
51781;BME280;37844;57.126;24.288;2023-03-20T14:05:11;100858.56;;;10.25;100.00
51781;BME280;37844;57.126;24.288;2023-03-20T14:07:56;100855.22;;;10.29;100.00
51781;BME280;37844;57.126;24.288;2023-03-20T14:10:40;100850.06;;;10.29;100.00
51781;BME280;37844;57.126;24.288;2023-03-20T14:13:24;100842.16;;;10.20;100.00
51781;BME280;37844;57.126;24.288;2023-03-20T14:16:09;100846.47;;;10.23;100.00
51781;BME280;37844;57.126;24.288;2023-03-20T14:19:20;100837.13;;;10.28;100.00
51781;BME280;37844;57.126;24.288;2023-03-20T14:22:08;100834.44;;;10.22;100.00
51781;BME280;37844;57.126;24.288;2023-03-20T14:24:58;100830.22;;;10.27;100.00
51781;BME280;37844;57.126;24.288;2023-03-20T14:27:53;100831.19;;;10.30;100.00
51781;BME280;37844;57.126;24.288;2023-03-20T14:30:43;100826.19;;;10.39;100.00
51781;BME280;37844;57.126;24.288;2023-03-20T14:33:29;100827.94;;;10.42;100.00
51781;BME280;37844;57.126;24.288;2023-03-20T14:36:18;100821.03;;;10.41;100.00
51781;BME280;37844;57.126;24.288;2023-03-20T14:41:59;100818.69;;;10.58;100.00
51781;BME280;37844;57.126;24.288;2023-03-20T14:48:00;100811.91;;;10.63;100.00
51781;BME280;37844;57.126;24.288;2023-03-20T14:50:54;100812.75;;;10.62;100.00
51781;BME280;37844;57.126;24.288;2023-03-20T14:53:49;100812.69;;;10.57;100.00
51781;BME280;37844;57.126;24.288;2023-03-20T14:56:33;100816.97;;;10.57;100.00
51781;BME280;37844;57.126;24.288;2023-03-20T14:59:18;100813.59;;;10.61;100.00
51781;BME280;37844;57.126;24.288;2023-03-20T15:02:03;100813.56;;;10.59;100.00
51781;BME280;37844;57.126;24.288;2023-03-20T15:04:46;100800.75;;;10.64;100.00
51781;BME280;37844;57.126;24.288;2023-03-20T15:07:33;100803.34;;;10.66;100.00
51781;BME280;37844;57.126;24.288;2023-03-20T15:10:19;100799.94;;;10.70;100.00
51781;BME280;37844;57.126;24.288;2023-03-20T15:13:04;100795.72;;;10.73;100.00
51781;BME280;37844;57.126;24.288;2023-03-20T15:15:54;100789.66;;;10.71;100.00
51781;BME280;37844;57.126;24.288;2023-03-20T15:18:59;100787.03;;;10.67;100.00
51781;BME280;37844;57.126;24.288;2023-03-20T15:21:49;100793.13;;;10.70;100.00
51781;BME280;37844;57.126;24.288;2023-03-20T15:24:33;100791.31;;;10.68;100.00
51781;BME280;37844;57.126;24.288;2023-03-20T15:27:17;100789.63;;;10.70;100.00
51781;BME280;37844;57.126;24.288;2023-03-20T15:30:00;100777.56;;;10.67;100.00
51781;BME280;37844;57.126;24.288;2023-03-20T15:32:45;100776.75;;;10.68;100.00
51781;BME280;37844;57.126;24.288;2023-03-20T15:35:30;100774.25;;;10.76;100.00
51781;BME280;37844;57.126;24.288;2023-03-20T15:38:15;100773.38;;;10.74;100.00
51781;BME280;37844;57.126;24.288;2023-03-20T15:41:02;100767.31;;;10.72;100.00
51781;BME280;37844;57.126;24.288;2023-03-20T15:43:47;100767.34;;;10.73;100.00
51781;BME280;37844;57.126;24.288;2023-03-20T15:46:31;100765.63;;;10.71;100.00
51781;BME280;37844;57.126;24.288;2023-03-20T15:49:18;100759.59;;;10.72;100.00
51781;BME280;37844;57.126;24.288;2023-03-20T15:52:15;100756.19;;;10.74;100.00
51781;BME280;37844;57.126;24.288;2023-03-20T15:55:05;100751.81;;;10.67;100.00
51781;BME280;37844;57.126;24.288;2023-03-20T15:57:50;100748.41;;;10.70;100.00
51781;BME280;37844;57.126;24.288;2023-03-20T16:00:43;100745.00;;;10.71;100.00
51781;BME280;37844;57.126;24.288;2023-03-20T16:03:28;100752.63;;;10.65;100.00
51781;BME280;37844;57.126;24.288;2023-03-20T16:06:15;100744.06;;;10.66;100.00
51781;BME280;37844;57.126;24.288;2023-03-20T16:09:04;100744.06;;;10.67;100.00
51781;BME280;37844;57.126;24.288;2023-03-20T16:11:53;100734.69;;;10.71;100.00
51781;BME280;37844;57.126;24.288;2023-03-20T16:14:38;100736.41;;;10.70;100.00
51781;BME280;37844;57.126;24.288;2023-03-20T16:17:30;100736.34;;;10.67;100.00
51781;BME280;37844;57.126;24.288;2023-03-20T16:20:15;100729.47;;;10.68;100.00